sensor_id;sensor_type;location;lat;lon;timestamp;pressure;altitude;pressure_sealevel;temperature;humidity
76108;BME280;64834;52.516;10.528;2023-07-13T00:01:36;100669.91;;;17.74;78.02
76108;BME280;64834;52.516;10.528;2023-07-13T00:04:03;100672.56;;;17.74;77.81
76108;BME280;64834;52.516;10.528;2023-07-13T00:06:29;100669.06;;;17.77;77.44
76108;BME280;64834;52.516;10.528;2023-07-13T00:08:58;100674.88;;;17.64;77.72
76108;BME280;64834;52.516;10.528;2023-07-13T00:11:23;100674.00;;;17.65;78.07
76108;BME280;64834;52.516;10.528;2023-07-13T00:13:48;100676.59;;;17.62;78.07
76108;BME280;64834;52.516;10.528;2023-07-13T00:16:14;100676.00;;;17.72;77.88
76108;BME280;64834;52.516;10.528;2023-07-13T00:18:39;100670.59;;;17.69;78.24
76108;BME280;64834;52.516;10.528;2023-07-13T00:21:05;100673.13;;;17.64;78.33
76108;BME280;64834;52.516;10.528;2023-07-13T00:23:32;100679.41;;;17.68;78.24
76108;BME280;64834;52.516;10.528;2023-07-13T00:25:59;100679.09;;;17.57;78.35
76108;BME280;64834;52.516;10.528;2023-07-13T00:28:25;100690.91;;;17.37;79.44
76108;BME280;64834;52.516;10.528;2023-07-13T00:30:50;100682.47;;;17.51;78.54
76108;BME280;64834;52.516;10.528;2023-07-13T00:33:15;100686.22;;;17.28;79.24
76108;BME280;64834;52.516;10.528;2023-07-13T00:35:41;100691.44;;;17.25;79.40
76108;BME280;64834;52.516;10.528;2023-07-13T00:38:08;100698.44;;;17.23;79.30
76108;BME280;64834;52.516;10.528;2023-07-13T00:40:34;100697.50;;;17.21;79.71
76108;BME280;64834;52.516;10.528;2023-07-13T00:42:59;100694.94;;;17.24;79.12
76108;BME280;64834;52.516;10.528;2023-07-13T00:47:50;100681.56;;;17.18;80.14
76108;BME280;64834;52.516;10.528;2023-07-13T00:50:16;100689.91;;;17.03;79.86
76108;BME280;64834;52.516;10.528;2023-07-13T00:52:46;100690.72;;;17.01;80.06
76108;BME280;64834;52.516;10.528;2023-07-13T00:55:14;100693.75;;;16.84;80.52
76108;BME280;64834;52.516;10.528;2023-07-13T00:57:40;100685.22;;;16.93;79.56
76108;BME280;64834;52.516;10.528;2023-07-13T01:00:07;100681.69;;;16.92;79.45
76108;BME280;64834;52.516;10.528;2023-07-13T01:02:37;100697.44;;;16.89;79.97
76108;BME280;64834;52.516;10.528;2023-07-13T01:05:10;100696.38;;;16.83;80.35
76108;BME280;64834;52.516;10.528;2023-07-13T01:07:36;100695.47;;;16.82;80.78
76108;BME280;64834;52.516;10.528;2023-07-13T01:10:03;100700.75;;;16.82;80.66
76108;BME280;64834;52.516;10.528;2023-07-13T01:12:29;100703.72;;;16.93;80.07
76108;BME280;64834;52.516;10.528;2023-07-13T01:14:59;100699.16;;;16.87;80.29
76108;BME280;64834;52.516;10.528;2023-07-13T01:17:26;100704.59;;;16.92;79.82
76108;BME280;64834;52.516;10.528;2023-07-13T01:19:52;100694.69;;;16.85;79.94
76108;BME280;64834;52.516;10.528;2023-07-13T01:22:18;100700.53;;;16.75;80.39
76108;BME280;64834;52.516;10.528;2023-07-13T01:24:46;100697.50;;;16.64;80.72
76108;BME280;64834;52.516;10.528;2023-07-13T01:27:15;100702.78;;;16.64;80.64
76108;BME280;64834;52.516;10.528;2023-07-13T01:29:42;100702.72;;;16.61;81.21
76108;BME280;64834;52.516;10.528;2023-07-13T01:32:09;100696.78;;;16.68;80.56
76108;BME280;64834;52.516;10.528;2023-07-13T01:34:35;100702.16;;;16.71;80.65
76108;BME280;64834;52.516;10.528;2023-07-13T01:37:02;100695.66;;;16.60;81.26
76108;BME280;64834;52.516;10.528;2023-07-13T01:39:28;100700.94;;;16.60;81.26
76108;BME280;64834;52.516;10.528;2023-07-13T01:41:53;100695.16;;;16.44;82.40
76108;BME280;64834;52.516;10.528;2023-07-13T01:44:18;100697.00;;;16.47;82.06
76108;BME280;64834;52.516;10.528;2023-07-13T01:46:44;100695.25;;;16.48;81.40
76108;BME280;64834;52.516;10.528;2023-07-13T01:49:09;100705.16;;;16.55;81.17
76108;BME280;64834;52.516;10.528;2023-07-13T01:51:34;100703.75;;;16.66;80.20
76108;BME280;64834;52.516;10.528;2023-07-13T01:53:59;100705.66;;;16.70;80.57
76108;BME280;64834;52.516;10.528;2023-07-13T01:56:25;100701.50;;;16.78;79.47
76108;BME280;64834;52.516;10.528;2023-07-13T01:58:51;100701.41;;;16.75;79.81
76108;BME280;64834;52.516;10.528;2023-07-13T02:01:17;100689.19;;;16.52;80.97
76108;BME280;64834;52.516;10.528;2023-07-13T02:03:42;100691.59;;;16.44;81.83
76108;BME280;64834;52.516;10.528;2023-07-13T02:06:08;100697.59;;;16.38;81.46
76108;BME280;64834;52.516;10.528;2023-07-13T02:08:33;100690.47;;;16.36;81.24
76108;BME280;64834;52.516;10.528;2023-07-13T02:10:59;100698.34;;;16.34;81.30
76108;BME280;64834;52.516;10.528;2023-07-13T02:13:24;100705.03;;;16.23;81.52
76108;BME280;64834;52.516;10.528;2023-07-13T02:15:51;100703.84;;;16.15;82.58
76108;BME280;64834;52.516;10.528;2023-07-13T02:18:16;100709.00;;;16.10;83.09
76108;BME280;64834;52.516;10.528;2023-07-13T02:20:42;100710.75;;;16.10;82.76
76108;BME280;64834;52.516;10.528;2023-07-13T02:23:08;100710.06;;;16.15;82.33
76108;BME280;64834;52.516;10.528;2023-07-13T02:25:33;100709.25;;;16.18;82.01
76108;BME280;64834;52.516;10.528;2023-07-13T02:27:58;100712.88;;;16.22;81.12
76108;BME280;64834;52.516;10.528;2023-07-13T02:30:23;100715.34;;;16.15;82.20
76108;BME280;64834;52.516;10.528;2023-07-13T02:32:50;100709.13;;;16.15;82.25
76108;BME280;64834;52.516;10.528;2023-07-13T02:35:15;100712.53;;;16.11;82.31
76108;BME280;64834;52.516;10.528;2023-07-13T02:37:40;100717.13;;;16.16;82.44
76108;BME280;64834;52.516;10.528;2023-07-13T02:40:06;100714.38;;;16.13;82.31
76108;BME280;64834;52.516;10.528;2023-07-13T02:42:33;100721.78;;;15.98;83.70
76108;BME280;64834;52.516;10.528;2023-07-13T02:44:58;100718.19;;;15.96;83.59
76108;BME280;64834;52.516;10.528;2023-07-13T02:47:24;100722.00;;;16.04;83.46
76108;BME280;64834;52.516;10.528;2023-07-13T02:49:49;100718.56;;;16.07;82.72
76108;BME280;64834;52.516;10.528;2023-07-13T02:52:14;100720.34;;;16.08;83.22
76108;BME280;64834;52.516;10.528;2023-07-13T02:54:40;100723.47;;;15.96;83.59
76108;BME280;64834;52.516;10.528;2023-07-13T02:57:05;100719.25;;;16.01;83.05
76108;BME280;64834;52.516;10.528;2023-07-13T02:59:31;100716.38;;;15.95;83.82
76108;BME280;64834;52.516;10.528;2023-07-13T03:01:57;100717.19;;;15.93;83.42
76108;BME280;64834;52.516;10.528;2023-07-13T03:04:22;100707.53;;;15.93;83.00
76108;BME280;64834;52.516;10.528;2023-07-13T03:06:48;100710.38;;;15.99;82.62
76108;BME280;64834;52.516;10.528;2023-07-13T03:09:13;100710.84;;;15.87;83.46
76108;BME280;64834;52.516;10.528;2023-07-13T03:11:38;100708.84;;;15.80;83.10
76108;BME280;64834;52.516;10.528;2023-07-13T03:14:04;100709.22;;;15.66;83.94
76108;BME280;64834;52.516;10.528;2023-07-13T03:16:29;100705.84;;;15.70;84.23
76108;BME280;64834;52.516;10.528;2023-07-13T03:18:55;100722.28;;;15.62;84.65
76108;BME280;64834;52.516;10.528;2023-07-13T03:21:20;100714.31;;;15.61;84.70
76108;BME280;64834;52.516;10.528;2023-07-13T03:23:46;100711.78;;;15.64;84.60
76108;BME280;64834;52.516;10.528;2023-07-13T03:26:16;100714.19;;;15.58;84.66
76108;BME280;64834;52.516;10.528;2023-07-13T03:28:42;100705.75;;;15.67;83.98
76108;BME280;64834;52.516;10.528;2023-07-13T03:31:10;100713.28;;;15.57;84.47
76108;BME280;64834;52.516;10.528;2023-07-13T03:33:37;100718.91;;;15.43;85.48
76108;BME280;64834;52.516;10.528;2023-07-13T03:36:04;100714.81;;;15.51;85.19
76108;BME280;64834;52.516;10.528;2023-07-13T03:38:30;100719.13;;;15.49;85.00
76108;BME280;64834;52.516;10.528;2023-07-13T03:40:56;100715.06;;;15.58;84.52
76108;BME280;64834;52.516;10.528;2023-07-13T03:43:21;100713.84;;;15.49;84.86
76108;BME280;64834;52.516;10.528;2023-07-13T03:45:47;100713.91;;;15.50;84.94
76108;BME280;64834;52.516;10.528;2023-07-13T03:48:13;100720.47;;;15.61;84.57
76108;BME280;64834;52.516;10.528;2023-07-13T03:50:39;100722.63;;;15.48;85.04
76108;BME280;64834;52.516;10.528;2023-07-13T03:53:04;100723.13;;;15.37;85.83
76108;BME280;64834;52.516;10.528;2023-07-13T03:55:30;100719.34;;;15.31;86.41
76108;BME280;64834;52.516;10.528;2023-07-13T03:58:06;100720.88;;;15.24;87.19
76108;BME280;64834;52.516;10.528;2023-07-13T04:00:44;100716.44;;;15.23;87.64
76108;BME280;64834;52.516;10.528;2023-07-13T04:03:10;100725.47;;;15.54;85.93
76108;BME280;64834;52.516;10.528;2023-07-13T04:05:35;100719.84;;;15.93;84.48
76108;BME280;64834;52.516;10.528;2023-07-13T04:08:01;100716.25;;;16.16;82.88
76108;BME280;64834;52.516;10.528;2023-07-13T04:10:26;100717.41;;;16.26;81.88
76108;BME280;64834;52.516;10.528;2023-07-13T04:12:51;100716.03;;;16.37;82.03
76108;BME280;64834;52.516;10.528;2023-07-13T04:15:17;100715.56;;;16.77;80.36
76108;BME280;64834;52.516;10.528;2023-07-13T04:17:42;100723.00;;;17.19;78.22
76108;BME280;64834;52.516;10.528;2023-07-13T04:20:08;100718.03;;;17.61;75.39
76108;BME280;64834;52.516;10.528;2023-07-13T04:22:33;100718.06;;;17.94;73.86
76108;BME280;64834;52.516;10.528;2023-07-13T04:24:58;100724.16;;;18.25;72.53
76108;BME280;64834;52.516;10.528;2023-07-13T04:27:23;100721.25;;;18.50;71.32
76108;BME280;64834;52.516;10.528;2023-07-13T04:29:49;100721.63;;;18.29;71.66
76108;BME280;64834;52.516;10.528;2023-07-13T04:32:14;100732.13;;;17.92;73.17
76108;BME280;64834;52.516;10.528;2023-07-13T04:34:39;100727.63;;;17.26;75.37
76108;BME280;64834;52.516;10.528;2023-07-13T04:37:05;100734.63;;;16.95;77.41
76108;BME280;64834;52.516;10.528;2023-07-13T04:39:30;100739.66;;;16.86;78.09
76108;BME280;64834;52.516;10.528;2023-07-13T04:41:56;100748.94;;;16.74;78.60
76108;BME280;64834;52.516;10.528;2023-07-13T04:44:21;100745.13;;;16.65;78.98
76108;BME280;64834;52.516;10.528;2023-07-13T04:46:46;100750.06;;;16.55;79.72
76108;BME280;64834;52.516;10.528;2023-07-13T04:49:12;100744.13;;;16.62;79.74
76108;BME280;64834;52.516;10.528;2023-07-13T04:51:37;100748.56;;;16.63;79.69
76108;BME280;64834;52.516;10.528;2023-07-13T04:54:02;100751.38;;;16.67;79.77
76108;BME280;64834;52.516;10.528;2023-07-13T04:56:30;100757.97;;;16.80;80.00
76108;BME280;64834;52.516;10.528;2023-07-13T04:58:55;100760.03;;;16.90;79.18
76108;BME280;64834;52.516;10.528;2023-07-13T05:01:20;100761.72;;;16.88;78.99
76108;BME280;64834;52.516;10.528;2023-07-13T05:03:46;100767.13;;;16.91;79.08
76108;BME280;64834;52.516;10.528;2023-07-13T05:06:11;100768.97;;;16.94;78.65
76108;BME280;64834;52.516;10.528;2023-07-13T05:08:37;100771.88;;;17.03;78.78
76108;BME280;64834;52.516;10.528;2023-07-13T05:11:03;100767.38;;;16.99;77.60
76108;BME280;64834;52.516;10.528;2023-07-13T05:13:29;100771.16;;;17.09;76.97
76108;BME280;64834;52.516;10.528;2023-07-13T05:16:03;100777.34;;;17.09;76.86
76108;BME280;64834;52.516;10.528;2023-07-13T05:18:30;100773.91;;;17.12;76.65
76108;BME280;64834;52.516;10.528;2023-07-13T05:21:03;100773.75;;;17.06;75.54
76108;BME280;64834;52.516;10.528;2023-07-13T05:23:29;100777.16;;;17.03;74.84
76108;BME280;64834;52.516;10.528;2023-07-13T05:25:55;100775.25;;;16.97;74.48
76108;BME280;64834;52.516;10.528;2023-07-13T05:28:21;100772.53;;;17.24;74.46
76108;BME280;64834;52.516;10.528;2023-07-13T05:30:48;100775.78;;;17.44;73.45
76108;BME280;64834;52.516;10.528;2023-07-13T05:33:13;100770.50;;;17.74;71.57
76108;BME280;64834;52.516;10.528;2023-07-13T05:35:39;100784.50;;;17.72;70.42
76108;BME280;64834;52.516;10.528;2023-07-13T05:38:05;100777.16;;;17.62;71.76
76108;BME280;64834;52.516;10.528;2023-07-13T05:40:30;100774.00;;;17.73;71.11
76108;BME280;64834;52.516;10.528;2023-07-13T05:42:55;100781.09;;;17.76;71.56
76108;BME280;64834;52.516;10.528;2023-07-13T05:45:21;100787.81;;;17.95;70.10
76108;BME280;64834;52.516;10.528;2023-07-13T05:47:46;100786.41;;;18.09;70.45
76108;BME280;64834;52.516;10.528;2023-07-13T05:50:12;100796.63;;;18.28;69.67
76108;BME280;64834;52.516;10.528;2023-07-13T05:52:37;100797.94;;;18.44;69.11
76108;BME280;64834;52.516;10.528;2023-07-13T05:55:03;100795.00;;;18.33;68.20
76108;BME280;64834;52.516;10.528;2023-07-13T05:57:30;100797.50;;;18.27;67.98
76108;BME280;64834;52.516;10.528;2023-07-13T05:59:55;100803.78;;;18.31;68.29
76108;BME280;64834;52.516;10.528;2023-07-13T06:02:20;100801.91;;;18.27;69.03
76108;BME280;64834;52.516;10.528;2023-07-13T06:04:46;100803.91;;;18.36;69.37
76108;BME280;64834;52.516;10.528;2023-07-13T06:07:11;100803.56;;;18.58;69.13
76108;BME280;64834;52.516;10.528;2023-07-13T06:09:36;100807.63;;;18.42;67.90
76108;BME280;64834;52.516;10.528;2023-07-13T06:12:02;100805.56;;;18.32;68.43
76108;BME280;64834;52.516;10.528;2023-07-13T06:14:27;100813.09;;;18.50;68.06
76108;BME280;64834;52.516;10.528;2023-07-13T06:16:53;100815.75;;;18.50;68.14
76108;BME280;64834;52.516;10.528;2023-07-13T06:19:18;100815.88;;;18.54;67.92
76108;BME280;64834;52.516;10.528;2023-07-13T06:21:43;100815.34;;;18.68;68.04
76108;BME280;64834;52.516;10.528;2023-07-13T06:24:08;100812.59;;;18.66;67.28
76108;BME280;64834;52.516;10.528;2023-07-13T06:26:34;100823.50;;;18.75;67.25
76108;BME280;64834;52.516;10.528;2023-07-13T06:28:59;100822.84;;;18.85;66.44
76108;BME280;64834;52.516;10.528;2023-07-13T06:31:24;100821.28;;;18.94;65.83
76108;BME280;64834;52.516;10.528;2023-07-13T06:33:50;100822.34;;;19.02;66.25
76108;BME280;64834;52.516;10.528;2023-07-13T06:36:15;100824.22;;;19.47;65.66
76108;BME280;64834;52.516;10.528;2023-07-13T06:38:40;100817.34;;;19.55;64.66
76108;BME280;64834;52.516;10.528;2023-07-13T06:41:07;100816.66;;;19.62;64.30
76108;BME280;64834;52.516;10.528;2023-07-13T06:43:33;100818.47;;;19.64;62.54
76108;BME280;64834;52.516;10.528;2023-07-13T06:45:58;100821.78;;;19.56;64.01
76108;BME280;64834;52.516;10.528;2023-07-13T06:48:24;100818.72;;;19.77;63.28
76108;BME280;64834;52.516;10.528;2023-07-13T06:50:50;100821.88;;;19.59;61.23
76108;BME280;64834;52.516;10.528;2023-07-13T06:53:17;100824.56;;;19.60;60.54
76108;BME280;64834;52.516;10.528;2023-07-13T06:55:43;100816.34;;;19.50;59.53
76108;BME280;64834;52.516;10.528;2023-07-13T06:58:09;100823.69;;;19.22;60.60
76108;BME280;64834;52.516;10.528;2023-07-13T07:00:34;100817.75;;;18.93;60.73
76108;BME280;64834;52.516;10.528;2023-07-13T07:02:59;100817.28;;;18.75;61.73
76108;BME280;64834;52.516;10.528;2023-07-13T07:05:25;100814.56;;;19.09;61.18
76108;BME280;64834;52.516;10.528;2023-07-13T07:07:51;100814.28;;;19.77;60.27
76108;BME280;64834;52.516;10.528;2023-07-13T07:10:18;100815.16;;;20.21;58.17
76108;BME280;64834;52.516;10.528;2023-07-13T07:12:43;100804.66;;;20.29;57.69
76108;BME280;64834;52.516;10.528;2023-07-13T07:15:09;100810.06;;;20.85;55.81
76108;BME280;64834;52.516;10.528;2023-07-13T07:17:34;100806.19;;;20.65;55.29
76108;BME280;64834;52.516;10.528;2023-07-13T07:19:59;100808.56;;;20.01;55.40
76108;BME280;64834;52.516;10.528;2023-07-13T07:22:25;100818.75;;;19.80;56.16
76108;BME280;64834;52.516;10.528;2023-07-13T07:24:53;100817.41;;;20.00;56.30
76108;BME280;64834;52.516;10.528;2023-07-13T07:27:19;100818.53;;;20.11;56.04
76108;BME280;64834;52.516;10.528;2023-07-13T07:29:44;100808.91;;;20.18;55.39
76108;BME280;64834;52.516;10.528;2023-07-13T07:32:10;100815.31;;;20.31;55.66
76108;BME280;64834;52.516;10.528;2023-07-13T07:34:35;100819.25;;;20.50;54.87
76108;BME280;64834;52.516;10.528;2023-07-13T07:37:01;100823.31;;;20.81;54.16
76108;BME280;64834;52.516;10.528;2023-07-13T07:39:26;100817.47;;;20.50;54.40
76108;BME280;64834;52.516;10.528;2023-07-13T07:41:52;100819.41;;;20.12;55.65
76108;BME280;64834;52.516;10.528;2023-07-13T07:44:17;100814.38;;;20.29;54.93
76108;BME280;64834;52.516;10.528;2023-07-13T07:46:43;100817.94;;;20.29;55.25
76108;BME280;64834;52.516;10.528;2023-07-13T07:49:08;100817.78;;;20.20;55.88
76108;BME280;64834;52.516;10.528;2023-07-13T07:51:34;100813.78;;;20.43;55.78
76108;BME280;64834;52.516;10.528;2023-07-13T07:53:59;100815.06;;;20.65;55.93
76108;BME280;64834;52.516;10.528;2023-07-13T07:56:25;100816.84;;;21.24;54.13
76108;BME280;64834;52.516;10.528;2023-07-13T07:58:50;100812.91;;;21.57;52.47
76108;BME280;64834;52.516;10.528;2023-07-13T08:01:15;100820.97;;;21.63;52.08
76108;BME280;64834;52.516;10.528;2023-07-13T08:03:41;100819.91;;;21.50;51.40
76108;BME280;64834;52.516;10.528;2023-07-13T08:06:06;100826.03;;;21.44;51.35
76108;BME280;64834;52.516;10.528;2023-07-13T08:08:32;100818.59;;;21.23;52.71
76108;BME280;64834;52.516;10.528;2023-07-13T08:10:57;100826.06;;;21.46;52.21
76108;BME280;64834;52.516;10.528;2023-07-13T08:13:22;100822.63;;;20.94;53.22
76108;BME280;64834;52.516;10.528;2023-07-13T08:15:48;100824.03;;;20.73;54.00
76108;BME280;64834;52.516;10.528;2023-07-13T08:18:14;100825.91;;;20.78;54.27
76108;BME280;64834;52.516;10.528;2023-07-13T08:20:40;100827.34;;;20.59;54.49
76108;BME280;64834;52.516;10.528;2023-07-13T08:23:07;100833.38;;;21.01;54.39
76108;BME280;64834;52.516;10.528;2023-07-13T08:25:34;100829.22;;;21.19;52.89
76108;BME280;64834;52.516;10.528;2023-07-13T08:27:59;100828.53;;;21.32;53.03
76108;BME280;64834;52.516;10.528;2023-07-13T08:30:25;100827.03;;;22.25;50.93
76108;BME280;64834;52.516;10.528;2023-07-13T08:32:50;100828.34;;;21.23;52.16
76108;BME280;64834;52.516;10.528;2023-07-13T08:35:15;100826.88;;;21.40;53.48
76108;BME280;64834;52.516;10.528;2023-07-13T08:37:42;100823.31;;;21.40;52.23
76108;BME280;64834;52.516;10.528;2023-07-13T08:40:11;100825.16;;;21.44;53.03
76108;BME280;64834;52.516;10.528;2023-07-13T08:42:42;100832.78;;;21.21;54.23
76108;BME280;64834;52.516;10.528;2023-07-13T08:47:56;100831.22;;;21.34;54.85
76108;BME280;64834;52.516;10.528;2023-07-13T08:50:29;100828.66;;;21.43;54.86
76108;BME280;64834;52.516;10.528;2023-07-13T08:52:56;100834.22;;;21.58;52.31
76108;BME280;64834;52.516;10.528;2023-07-13T08:55:31;100828.94;;;21.63;54.14
76108;BME280;64834;52.516;10.528;2023-07-13T08:58:07;100836.53;;;21.34;53.51
76108;BME280;64834;52.516;10.528;2023-07-13T09:00:41;100837.06;;;21.11;53.58
76108;BME280;64834;52.516;10.528;2023-07-13T09:03:18;100833.63;;;21.18;53.13
76108;BME280;64834;52.516;10.528;2023-07-13T09:05:51;100835.66;;;20.79;53.48
76108;BME280;64834;52.516;10.528;2023-07-13T09:08:26;100840.00;;;20.72;53.81
76108;BME280;64834;52.516;10.528;2023-07-13T09:11:11;100844.00;;;21.00;54.58
76108;BME280;64834;52.516;10.528;2023-07-13T09:14:03;100846.78;;;21.09;52.04
76108;BME280;64834;52.516;10.528;2023-07-13T09:16:32;100844.59;;;20.81;51.91
76108;BME280;64834;52.516;10.528;2023-07-13T09:19:02;100833.00;;;20.29;52.92
76108;BME280;64834;52.516;10.528;2023-07-13T09:21:36;100835.41;;;20.15;53.87
76108;BME280;64834;52.516;10.528;2023-07-13T09:24:33;100845.44;;;21.36;53.89
76108;BME280;64834;52.516;10.528;2023-07-13T09:26:59;100839.78;;;21.79;50.87
76108;BME280;64834;52.516;10.528;2023-07-13T09:29:33;100835.34;;;21.80;50.34
76108;BME280;64834;52.516;10.528;2023-07-13T09:32:03;100841.25;;;21.54;50.87
76108;BME280;64834;52.516;10.528;2023-07-13T09:34:32;100841.91;;;22.06;49.47
76108;BME280;64834;52.516;10.528;2023-07-13T09:36:58;100838.72;;;22.40;49.78
76108;BME280;64834;52.516;10.528;2023-07-13T09:39:33;100837.13;;;21.79;47.48
76108;BME280;64834;52.516;10.528;2023-07-13T09:48:04;100828.78;;;22.23;48.10
76108;BME280;64834;52.516;10.528;2023-07-13T09:50:29;100848.25;;;21.48;49.64
76108;BME280;64834;52.516;10.528;2023-07-13T09:52:55;100843.97;;;21.56;50.08
76108;BME280;64834;52.516;10.528;2023-07-13T09:55:26;100841.72;;;21.90;49.17
76108;BME280;64834;52.516;10.528;2023-07-13T09:57:52;100835.28;;;22.53;49.02
76108;BME280;64834;52.516;10.528;2023-07-13T10:00:23;100842.94;;;21.46;49.97
76108;BME280;64834;52.516;10.528;2023-07-13T10:03:02;100845.19;;;21.22;50.46
76108;BME280;64834;52.516;10.528;2023-07-13T10:05:37;100844.22;;;21.14;51.16
76108;BME280;64834;52.516;10.528;2023-07-13T10:08:03;100845.19;;;21.20;51.59
76108;BME280;64834;52.516;10.528;2023-07-13T10:10:28;100849.22;;;21.51;51.26
76108;BME280;64834;52.516;10.528;2023-07-13T10:12:53;100847.59;;;21.63;50.81
76108;BME280;64834;52.516;10.528;2023-07-13T10:15:22;100837.91;;;21.69;50.11
76108;BME280;64834;52.516;10.528;2023-07-13T10:17:49;100845.28;;;21.25;51.32
76108;BME280;64834;52.516;10.528;2023-07-13T10:20:16;100839.50;;;20.96;52.54
76108;BME280;64834;52.516;10.528;2023-07-13T10:22:50;100844.72;;;20.90;53.14
76108;BME280;64834;52.516;10.528;2023-07-13T10:25:21;100849.66;;;21.87;52.17
76108;BME280;64834;52.516;10.528;2023-07-13T10:27:49;100841.84;;;22.02;50.26
76108;BME280;64834;52.516;10.528;2023-07-13T10:30:21;100841.56;;;22.58;48.56
76108;BME280;64834;52.516;10.528;2023-07-13T10:32:49;100834.63;;;22.81;46.56
76108;BME280;64834;52.516;10.528;2023-07-13T10:35:15;100832.00;;;22.86;46.34
76108;BME280;64834;52.516;10.528;2023-07-13T10:37:49;100819.06;;;22.28;47.31
76108;BME280;64834;52.516;10.528;2023-07-13T10:40:19;100834.63;;;21.93;47.80
76108;BME280;64834;52.516;10.528;2023-07-13T10:42:48;100831.19;;;22.88;46.23
76108;BME280;64834;52.516;10.528;2023-07-13T10:45:17;100834.63;;;22.80;45.93
76108;BME280;64834;52.516;10.528;2023-07-13T10:47:44;100832.44;;;22.34;46.03
76108;BME280;64834;52.516;10.528;2023-07-13T10:50:17;100835.81;;;22.18;46.61
76108;BME280;64834;52.516;10.528;2023-07-13T10:52:55;100838.34;;;22.97;45.52
76108;BME280;64834;52.516;10.528;2023-07-13T10:58:24;100837.84;;;23.61;44.70
76108;BME280;64834;52.516;10.528;2023-07-13T11:01:11;100841.28;;;23.37;43.70
76108;BME280;64834;52.516;10.528;2023-07-13T11:03:47;100836.66;;;23.11;44.39
76108;BME280;64834;52.516;10.528;2023-07-13T11:18:51;100830.50;;;23.20;44.95
76108;BME280;64834;52.516;10.528;2023-07-13T11:21:21;100822.44;;;23.12;44.04
76108;BME280;64834;52.516;10.528;2023-07-13T11:24:01;100830.56;;;23.28;44.82
76108;BME280;64834;52.516;10.528;2023-07-13T11:29:33;100837.00;;;23.68;41.32
76108;BME280;64834;52.516;10.528;2023-07-13T11:32:22;100828.19;;;23.84;39.88
76108;BME280;64834;52.516;10.528;2023-07-13T11:34:48;100829.63;;;23.24;42.62
76108;BME280;64834;52.516;10.528;2023-07-13T11:37:15;100827.63;;;22.90;43.12
76108;BME280;64834;52.516;10.528;2023-07-13T11:39:44;100835.84;;;23.22;42.44
76108;BME280;64834;52.516;10.528;2023-07-13T11:42:16;100840.97;;;22.91;43.83
76108;BME280;64834;52.516;10.528;2023-07-13T11:44:44;100823.44;;;23.27;43.43
76108;BME280;64834;52.516;10.528;2023-07-13T11:47:14;100821.41;;;22.92;43.08
76108;BME280;64834;52.516;10.528;2023-07-13T11:49:44;100826.84;;;23.01;43.89
76108;BME280;64834;52.516;10.528;2023-07-13T11:52:18;100823.28;;;23.05;44.60
76108;BME280;64834;52.516;10.528;2023-07-13T11:54:51;100829.59;;;23.17;43.87
76108;BME280;64834;52.516;10.528;2023-07-13T11:57:35;100834.00;;;23.13;43.94
76108;BME280;64834;52.516;10.528;2023-07-13T12:00:11;100831.44;;;23.30;43.39
76108;BME280;64834;52.516;10.528;2023-07-13T12:02:45;100832.59;;;23.72;42.41
76108;BME280;64834;52.516;10.528;2023-07-13T12:05:13;100819.44;;;24.34;42.65
76108;BME280;64834;52.516;10.528;2023-07-13T12:07:41;100818.53;;;24.49;39.86
76108;BME280;64834;52.516;10.528;2023-07-13T12:12:37;100811.41;;;24.46;37.99
76108;BME280;64834;52.516;10.528;2023-07-13T12:15:10;100817.66;;;24.55;37.11
76108;BME280;64834;52.516;10.528;2023-07-13T12:17:36;100816.66;;;24.04;37.91
76108;BME280;64834;52.516;10.528;2023-07-13T12:20:16;100826.19;;;23.40;39.40
76108;BME280;64834;52.516;10.528;2023-07-13T12:22:49;100816.53;;;23.64;40.43
76108;BME280;64834;52.516;10.528;2023-07-13T12:25:15;100804.22;;;24.22;40.19
76108;BME280;64834;52.516;10.528;2023-07-13T12:27:46;100815.88;;;24.41;39.39
76108;BME280;64834;52.516;10.528;2023-07-13T12:30:30;100817.59;;;24.24;38.47
76108;BME280;64834;52.516;10.528;2023-07-13T12:32:58;100822.94;;;24.26;37.63
76108;BME280;64834;52.516;10.528;2023-07-13T12:35:24;100823.81;;;24.25;38.28
76108;BME280;64834;52.516;10.528;2023-07-13T12:37:51;100818.53;;;24.49;38.91
76108;BME280;64834;52.516;10.528;2023-07-13T12:40:19;100818.47;;;24.18;38.50
76108;BME280;64834;52.516;10.528;2023-07-13T12:42:47;100825.34;;;23.55;40.25
76108;BME280;64834;52.516;10.528;2023-07-13T12:45:27;100817.50;;;23.93;39.77
76108;BME280;64834;52.516;10.528;2023-07-13T12:48:04;100812.25;;;24.33;40.19
76108;BME280;64834;52.516;10.528;2023-07-13T12:50:45;100811.41;;;24.60;39.53
76108;BME280;64834;52.516;10.528;2023-07-13T12:53:23;100827.47;;;24.82;39.18
76108;BME280;64834;52.516;10.528;2023-07-13T12:55:52;100812.28;;;24.87;39.23
76108;BME280;64834;52.516;10.528;2023-07-13T12:58:29;100815.88;;;24.52;39.27
76108;BME280;64834;52.516;10.528;2023-07-13T13:00:58;100816.69;;;24.31;37.89
76108;BME280;64834;52.516;10.528;2023-07-13T13:03:30;100816.75;;;24.48;38.47
76108;BME280;64834;52.516;10.528;2023-07-13T13:06:01;100814.97;;;24.39;37.80
76108;BME280;64834;52.516;10.528;2023-07-13T13:08:29;100822.00;;;23.96;39.33
76108;BME280;64834;52.516;10.528;2023-07-13T13:10:55;100825.25;;;23.37;41.86
76108;BME280;64834;52.516;10.528;2023-07-13T13:13:20;100820.56;;;22.96;43.43
76108;BME280;64834;52.516;10.528;2023-07-13T13:15:46;100817.00;;;22.97;43.44